sensor_id;sensor_type;location;lat;lon;timestamp;pressure;altitude;pressure_sealevel;temperature;humidity
64711;BME280;51139;45.626;6.850;2023-03-23T00:00:59;81836.63;;;5.03;51.33
64711;BME280;51139;45.626;6.850;2023-03-23T00:03:24;81829.56;;;4.82;51.95
64711;BME280;51139;45.626;6.850;2023-03-23T00:05:51;81834.84;;;4.90;51.66
64711;BME280;51139;45.626;6.850;2023-03-23T00:08:18;81828.91;;;4.89;51.64
64711;BME280;51139;45.626;6.850;2023-03-23T00:10:48;81827.31;;;4.94;51.68
64711;BME280;51139;45.626;6.850;2023-03-23T00:13:17;81833.81;;;5.01;51.88
64711;BME280;51139;45.626;6.850;2023-03-23T00:15:45;81831.53;;;4.97;51.54
64711;BME280;51139;45.626;6.850;2023-03-23T00:18:14;81819.44;;;4.94;49.85
64711;BME280;51139;45.626;6.850;2023-03-23T00:20:49;81821.53;;;4.80;50.95
64711;BME280;51139;45.626;6.850;2023-03-23T00:23:16;81819.97;;;4.85;51.09
64711;BME280;51139;45.626;6.850;2023-03-23T00:25:48;81820.84;;;4.95;51.35
64711;BME280;51139;45.626;6.850;2023-03-23T00:28:15;81819.44;;;4.94;50.49
64711;BME280;51139;45.626;6.850;2023-03-23T00:30:41;81827.31;;;4.94;50.64
64711;BME280;51139;45.626;6.850;2023-03-23T00:33:08;81822.44;;;4.98;51.62
64711;BME280;51139;45.626;6.850;2023-03-23T00:35:33;81820.88;;;5.03;50.74
64711;BME280;51139;45.626;6.850;2023-03-23T00:38:01;81826.13;;;5.10;51.12
64711;BME280;51139;45.626;6.850;2023-03-23T00:40:27;81817.38;;;5.23;50.64
64711;BME280;51139;45.626;6.850;2023-03-23T00:42:52;81817.72;;;5.20;50.78
64711;BME280;51139;45.626;6.850;2023-03-23T00:45:18;81811.44;;;5.31;50.73
64711;BME280;51139;45.626;6.850;2023-03-23T00:47:43;81817.72;;;5.43;50.73
64711;BME280;51139;45.626;6.850;2023-03-23T00:50:12;81815.13;;;5.35;51.03
64711;BME280;51139;45.626;6.850;2023-03-23T00:52:39;81811.78;;;5.43;51.68
64711;BME280;51139;45.626;6.850;2023-03-23T00:55:06;81813.16;;;5.59;51.09
64711;BME280;51139;45.626;6.850;2023-03-23T00:57:31;81815.28;;;5.53;50.82
64711;BME280;51139;45.626;6.850;2023-03-23T00:59:57;81813.00;;;5.49;52.34
64711;BME280;51139;45.626;6.850;2023-03-23T01:02:24;81810.38;;;5.57;52.65
64711;BME280;51139;45.626;6.850;2023-03-23T01:04:51;81811.78;;;5.58;53.31
64711;BME280;51139;45.626;6.850;2023-03-23T01:07:19;81811.41;;;5.62;51.88
64711;BME280;51139;45.626;6.850;2023-03-23T01:09:46;81818.06;;;5.70;53.04
64711;BME280;51139;45.626;6.850;2023-03-23T01:12:12;81810.72;;;5.46;53.78
64711;BME280;51139;45.626;6.850;2023-03-23T01:14:37;81810.91;;;5.32;54.61
64711;BME280;51139;45.626;6.850;2023-03-23T01:17:03;81812.13;;;5.31;55.03
64711;BME280;51139;45.626;6.850;2023-03-23T01:19:29;81805.81;;;5.26;56.16
64711;BME280;51139;45.626;6.850;2023-03-23T01:21:55;81812.47;;;5.43;57.08
64711;BME280;51139;45.626;6.850;2023-03-23T01:24:20;81802.16;;;5.37;57.15
64711;BME280;51139;45.626;6.850;2023-03-23T01:26:45;81798.28;;;5.46;56.31
64711;BME280;51139;45.626;6.850;2023-03-23T01:29:11;81799.34;;;5.43;55.81
64711;BME280;51139;45.626;6.850;2023-03-23T01:31:36;81805.50;;;5.30;57.77
64711;BME280;51139;45.626;6.850;2023-03-23T01:34:02;81802.66;;;5.28;59.10
64711;BME280;51139;45.626;6.850;2023-03-23T01:36:29;81798.13;;;5.13;59.76
64711;BME280;51139;45.626;6.850;2023-03-23T01:38:59;81801.09;;;5.02;59.88
64711;BME280;51139;45.626;6.850;2023-03-23T01:41:26;81806.34;;;5.02;59.36
64711;BME280;51139;45.626;6.850;2023-03-23T01:44:06;81798.81;;;4.98;59.48
64711;BME280;51139;45.626;6.850;2023-03-23T01:46:36;81799.69;;;5.16;56.69
64711;BME280;51139;45.626;6.850;2023-03-23T01:49:15;81803.19;;;5.26;56.73
64711;BME280;51139;45.626;6.850;2023-03-23T01:51:53;81796.19;;;5.14;57.25
64711;BME280;51139;45.626;6.850;2023-03-23T01:54:23;81794.97;;;5.15;57.17
64711;BME280;51139;45.626;6.850;2023-03-23T01:56:56;81793.75;;;5.23;56.34
64711;BME280;51139;45.626;6.850;2023-03-23T01:59:24;81790.59;;;5.02;57.32
64711;BME280;51139;45.626;6.850;2023-03-23T02:01:53;81800.75;;;4.97;57.78
64711;BME280;51139;45.626;6.850;2023-03-23T02:04:19;81794.97;;;5.30;55.47
64711;BME280;51139;45.626;6.850;2023-03-23T02:06:46;81790.91;;;5.68;54.34
64711;BME280;51139;45.626;6.850;2023-03-23T02:09:13;81797.22;;;5.65;52.87
64711;BME280;51139;45.626;6.850;2023-03-23T02:11:39;81794.25;;;5.45;55.21
64711;BME280;51139;45.626;6.850;2023-03-23T02:14:05;81798.81;;;5.45;55.38
64711;BME280;51139;45.626;6.850;2023-03-23T02:17:03;81795.16;;;5.32;55.25
64711;BME280;51139;45.626;6.850;2023-03-23T02:22:36;81781.44;;;5.73;52.24
64711;BME280;51139;45.626;6.850;2023-03-23T02:33:59;81783.38;;;5.64;53.28
64711;BME280;51139;45.626;6.850;2023-03-23T02:36:39;81798.59;;;5.81;51.27
64711;BME280;51139;45.626;6.850;2023-03-23T02:39:21;81789.72;;;5.22;52.64
64711;BME280;51139;45.626;6.850;2023-03-23T02:42:08;81795.81;;;5.79;51.03
64711;BME280;51139;45.626;6.850;2023-03-23T02:44:38;81806.44;;;6.12;50.70
64711;BME280;51139;45.626;6.850;2023-03-23T02:47:08;81807.53;;;5.86;49.66
64711;BME280;51139;45.626;6.850;2023-03-23T02:49:36;81803.66;;;5.95;49.24
64711;BME280;51139;45.626;6.850;2023-03-23T02:52:10;81807.19;;;5.66;50.96
64711;BME280;51139;45.626;6.850;2023-03-23T02:54:41;81801.91;;;5.74;51.84
64711;BME280;51139;45.626;6.850;2023-03-23T02:57:08;81806.44;;;6.12;50.20
64711;BME280;51139;45.626;6.850;2023-03-23T02:59:35;81795.38;;;6.22;49.64
64711;BME280;51139;45.626;6.850;2023-03-23T03:04:39;81794.81;;;6.31;48.19
64711;BME280;51139;45.626;6.850;2023-03-23T03:10:02;81797.25;;;6.37;48.41
64711;BME280;51139;45.626;6.850;2023-03-23T03:12:40;81795.03;;;6.18;48.61
64711;BME280;51139;45.626;6.850;2023-03-23T03:15:31;81796.66;;;6.05;50.12
64711;BME280;51139;45.626;6.850;2023-03-23T03:18:07;81799.38;;;6.23;49.54
64711;BME280;51139;45.626;6.850;2023-03-23T03:20:40;81790.28;;;6.16;50.35
64711;BME280;51139;45.626;6.850;2023-03-23T03:23:07;81788.22;;;6.07;50.69
64711;BME280;51139;45.626;6.850;2023-03-23T03:25:38;81785.28;;;5.72;52.79
64711;BME280;51139;45.626;6.850;2023-03-23T03:28:06;81780.41;;;5.60;53.80
64711;BME280;51139;45.626;6.850;2023-03-23T03:30:35;81774.22;;;5.89;53.16
64711;BME280;51139;45.626;6.850;2023-03-23T03:33:02;81782.63;;;5.95;53.05
64711;BME280;51139;45.626;6.850;2023-03-23T03:35:29;81775.84;;;5.76;54.34
64711;BME280;51139;45.626;6.850;2023-03-23T03:37:57;81763.56;;;5.79;54.87
64711;BME280;51139;45.626;6.850;2023-03-23T03:40:23;81774.44;;;5.67;55.73
64711;BME280;51139;45.626;6.850;2023-03-23T03:42:49;81769.81;;;5.91;55.46
64711;BME280;51139;45.626;6.850;2023-03-23T03:45:17;81774.38;;;6.06;54.85
64711;BME280;51139;45.626;6.850;2023-03-23T03:47:44;81776.16;;;5.88;55.04
64711;BME280;51139;45.626;6.850;2023-03-23T03:50:09;81773.16;;;5.92;56.63
64711;BME280;51139;45.626;6.850;2023-03-23T03:52:36;81771.44;;;5.71;55.96
64711;BME280;51139;45.626;6.850;2023-03-23T03:55:04;81771.84;;;5.52;57.61
64711;BME280;51139;45.626;6.850;2023-03-23T03:57:29;81762.72;;;5.53;58.57
64711;BME280;51139;45.626;6.850;2023-03-23T03:59:55;81765.00;;;5.57;58.81
64711;BME280;51139;45.626;6.850;2023-03-23T04:02:21;81768.00;;;5.45;59.00
64711;BME280;51139;45.626;6.850;2023-03-23T04:04:47;81774.31;;;5.26;60.14
64711;BME280;51139;45.626;6.850;2023-03-23T04:07:13;81767.66;;;5.25;59.57
64711;BME280;51139;45.626;6.850;2023-03-23T04:09:45;81768.16;;;5.24;60.34
64711;BME280;51139;45.626;6.850;2023-03-23T04:12:12;81767.66;;;5.49;58.57
64711;BME280;51139;45.626;6.850;2023-03-23T04:14:38;81768.53;;;5.28;59.19
64711;BME280;51139;45.626;6.850;2023-03-23T04:17:03;81772.56;;;5.14;58.92
64711;BME280;51139;45.626;6.850;2023-03-23T04:19:29;81765.03;;;5.33;58.21
64711;BME280;51139;45.626;6.850;2023-03-23T04:21:58;81768.19;;;5.16;59.05
64711;BME280;51139;45.626;6.850;2023-03-23T04:24:23;81766.09;;;5.30;58.46
64711;BME280;51139;45.626;6.850;2023-03-23T04:26:49;81762.59;;;5.28;58.60
64711;BME280;51139;45.626;6.850;2023-03-23T04:29:17;81753.66;;;5.38;58.49
64711;BME280;51139;45.626;6.850;2023-03-23T04:31:44;81750.81;;;5.52;57.45
64711;BME280;51139;45.626;6.850;2023-03-23T04:34:11;81750.63;;;5.58;56.92
64711;BME280;51139;45.626;6.850;2023-03-23T04:36:39;81750.06;;;5.82;56.45
64711;BME280;51139;45.626;6.850;2023-03-23T04:39:06;81746.94;;;5.76;56.11
64711;BME280;51139;45.626;6.850;2023-03-23T04:41:35;81754.44;;;5.88;56.62
64711;BME280;51139;45.626;6.850;2023-03-23T04:44:01;81750.06;;;5.82;57.93
64711;BME280;51139;45.626;6.850;2023-03-23T04:46:28;81741.41;;;5.33;60.78
64711;BME280;51139;45.626;6.850;2023-03-23T04:48:54;81748.25;;;5.13;61.33
64711;BME280;51139;45.626;6.850;2023-03-23T04:51:19;81751.22;;;4.94;62.53
64711;BME280;51139;45.626;6.850;2023-03-23T04:53:45;81741.78;;;4.99;62.12
64711;BME280;51139;45.626;6.850;2023-03-23T04:56:11;81751.22;;;4.94;62.51
64711;BME280;51139;45.626;6.850;2023-03-23T04:58:39;81745.59;;;4.90;63.12
64711;BME280;51139;45.626;6.850;2023-03-23T05:01:04;81754.16;;;4.75;64.22
64711;BME280;51139;45.626;6.850;2023-03-23T05:03:30;81749.09;;;4.77;64.35
64711;BME280;51139;45.626;6.850;2023-03-23T05:05:55;81747.88;;;4.70;65.25
64711;BME280;51139;45.626;6.850;2023-03-23T05:08:22;81742.09;;;4.64;64.50
64711;BME280;51139;45.626;6.850;2023-03-23T05:10:55;81744.19;;;4.58;65.83
64711;BME280;51139;45.626;6.850;2023-03-23T05:13:21;81748.56;;;4.47;65.76
64711;BME280;51139;45.626;6.850;2023-03-23T05:15:47;81745.94;;;4.55;65.96
64711;BME280;51139;45.626;6.850;2023-03-23T05:18:12;81745.56;;;4.51;66.58
64711;BME280;51139;45.626;6.850;2023-03-23T05:20:38;81746.13;;;4.73;65.62
64711;BME280;51139;45.626;6.850;2023-03-23T05:23:04;81754.34;;;4.77;65.97
64711;BME280;51139;45.626;6.850;2023-03-23T05:25:30;81748.22;;;4.74;66.53
64711;BME280;51139;45.626;6.850;2023-03-23T05:27:57;81747.34;;;4.79;66.42
64711;BME280;51139;45.626;6.850;2023-03-23T05:30:24;81746.28;;;4.75;66.19
64711;BME280;51139;45.626;6.850;2023-03-23T05:32:50;81752.25;;;4.83;67.28
64711;BME280;51139;45.626;6.850;2023-03-23T05:35:16;81757.34;;;4.96;66.85
64711;BME280;51139;45.626;6.850;2023-03-23T05:37:42;81746.50;;;4.92;65.78
64711;BME280;51139;45.626;6.850;2023-03-23T05:40:09;81747.38;;;4.87;66.17
64711;BME280;51139;45.626;6.850;2023-03-23T05:42:35;81752.06;;;4.81;67.29
64711;BME280;51139;45.626;6.850;2023-03-23T05:45:05;81753.16;;;4.93;66.04
64711;BME280;51139;45.626;6.850;2023-03-23T05:47:31;81747.03;;;4.99;65.16
64711;BME280;51139;45.626;6.850;2023-03-23T05:49:57;81742.63;;;5.01;63.63
64711;BME280;51139;45.626;6.850;2023-03-23T05:52:22;81755.94;;;5.11;62.99
64711;BME280;51139;45.626;6.850;2023-03-23T05:54:49;81751.91;;;5.10;64.26
64711;BME280;51139;45.626;6.850;2023-03-23T05:57:15;81762.75;;;5.06;63.23
64711;BME280;51139;45.626;6.850;2023-03-23T05:59:41;81758.03;;;5.20;63.21
64711;BME280;51139;45.626;6.850;2023-03-23T06:02:07;81773.44;;;5.16;63.00
64711;BME280;51139;45.626;6.850;2023-03-23T06:04:32;81776.41;;;5.13;62.18
64711;BME280;51139;45.626;6.850;2023-03-23T06:07:00;81774.84;;;5.02;63.18
64711;BME280;51139;45.626;6.850;2023-03-23T06:09:25;81772.75;;;5.08;63.49
64711;BME280;51139;45.626;6.850;2023-03-23T06:11:51;81770.28;;;5.41;61.16
64711;BME280;51139;45.626;6.850;2023-03-23T06:14:17;81777.28;;;5.31;62.29
64711;BME280;51139;45.626;6.850;2023-03-23T06:16:43;81777.66;;;5.19;63.40
64711;BME280;51139;45.626;6.850;2023-03-23T06:19:08;81779.22;;;5.22;61.48
64711;BME280;51139;45.626;6.850;2023-03-23T06:21:34;81778.16;;;5.33;61.83
64711;BME280;51139;45.626;6.850;2023-03-23T06:23:59;81778.00;;;5.31;62.21
64711;BME280;51139;45.626;6.850;2023-03-23T06:26:30;81779.03;;;5.36;63.11
64711;BME280;51139;45.626;6.850;2023-03-23T06:28:57;81773.25;;;5.45;63.53
64711;BME280;51139;45.626;6.850;2023-03-23T06:31:23;81786.53;;;5.47;63.42
64711;BME280;51139;45.626;6.850;2023-03-23T06:33:49;81791.78;;;5.63;62.52
64711;BME280;51139;45.626;6.850;2023-03-23T06:36:15;81789.84;;;5.87;63.58
64711;BME280;51139;45.626;6.850;2023-03-23T06:38:40;81792.09;;;5.90;62.45
64711;BME280;51139;45.626;6.850;2023-03-23T06:41:06;81793.09;;;6.18;60.22
64711;BME280;51139;45.626;6.850;2023-03-23T06:43:31;81795.31;;;6.37;57.24
64711;BME280;51139;45.626;6.850;2023-03-23T06:45:59;81792.31;;;6.41;55.04
64711;BME280;51139;45.626;6.850;2023-03-23T06:48:25;81797.25;;;6.37;54.75
64711;BME280;51139;45.626;6.850;2023-03-23T06:50:50;81797.31;;;6.21;56.13
64711;BME280;51139;45.626;6.850;2023-03-23T06:53:16;81790.66;;;6.12;56.70
64711;BME280;51139;45.626;6.850;2023-03-23T06:55:43;81786.47;;;5.94;56.03
64711;BME280;51139;45.626;6.850;2023-03-23T06:58:09;81786.97;;;6.16;55.39
64711;BME280;51139;45.626;6.850;2023-03-23T07:00:35;81791.50;;;6.23;54.97
64711;BME280;51139;45.626;6.850;2023-03-23T07:03:00;81792.16;;;6.39;55.22
64711;BME280;51139;45.626;6.850;2023-03-23T07:05:26;81796.25;;;6.24;57.62
64711;BME280;51139;45.626;6.850;2023-03-23T07:07:51;81797.97;;;6.30;57.52
64711;BME280;51139;45.626;6.850;2023-03-23T07:10:17;81799.88;;;6.37;57.63
64711;BME280;51139;45.626;6.850;2023-03-23T07:12:42;81791.31;;;6.28;56.80
64711;BME280;51139;45.626;6.850;2023-03-23T07:15:09;81800.91;;;6.41;54.21
64711;BME280;51139;45.626;6.850;2023-03-23T07:17:36;81798.59;;;6.53;53.18
64711;BME280;51139;45.626;6.850;2023-03-23T07:20:02;81799.84;;;6.45;55.31
64711;BME280;51139;45.626;6.850;2023-03-23T07:22:28;81807.00;;;6.52;53.99
64711;BME280;51139;45.626;6.850;2023-03-23T07:24:53;81825.88;;;6.74;56.83
64711;BME280;51139;45.626;6.850;2023-03-23T07:27:18;81821.88;;;6.98;54.80
64711;BME280;51139;45.626;6.850;2023-03-23T07:29:44;81819.34;;;7.15;54.38
64711;BME280;51139;45.626;6.850;2023-03-23T07:32:11;81819.56;;;7.35;54.20
64711;BME280;51139;45.626;6.850;2023-03-23T07:34:37;81824.09;;;7.42;51.91
64711;BME280;51139;45.626;6.850;2023-03-23T07:37:03;81814.53;;;7.47;52.35
64711;BME280;51139;45.626;6.850;2023-03-23T07:39:28;81812.66;;;7.40;51.13
64711;BME280;51139;45.626;6.850;2023-03-23T07:41:54;81819.66;;;7.45;51.38
64711;BME280;51139;45.626;6.850;2023-03-23T07:44:19;81827.34;;;7.51;50.30
64711;BME280;51139;45.626;6.850;2023-03-23T07:46:45;81828.97;;;7.46;49.54
64711;BME280;51139;45.626;6.850;2023-03-23T07:49:10;81828.03;;;6.93;49.30
64711;BME280;51139;45.626;6.850;2023-03-23T07:51:36;81830.72;;;6.85;51.19
64711;BME280;51139;45.626;6.850;2023-03-23T07:54:05;81822.41;;;6.63;53.14
64711;BME280;51139;45.626;6.850;2023-03-23T07:56:32;81836.09;;;6.62;55.24
64711;BME280;51139;45.626;6.850;2023-03-23T07:58:58;81824.28;;;6.30;55.20
64711;BME280;51139;45.626;6.850;2023-03-23T08:01:23;81825.91;;;6.58;54.39
64711;BME280;51139;45.626;6.850;2023-03-23T08:03:49;81821.94;;;6.90;51.21
64711;BME280;51139;45.626;6.850;2023-03-23T08:06:15;81819.41;;;7.33;51.40
64711;BME280;51139;45.626;6.850;2023-03-23T08:08:41;81826.00;;;7.42;52.15
64711;BME280;51139;45.626;6.850;2023-03-23T08:11:06;81819.09;;;7.54;55.07
64711;BME280;51139;45.626;6.850;2023-03-23T08:13:32;81821.09;;;7.13;48.85
64711;BME280;51139;45.626;6.850;2023-03-23T08:16:01;81820.22;;;7.69;47.98
64711;BME280;51139;45.626;6.850;2023-03-23T08:18:30;81819.63;;;7.96;45.67
64711;BME280;51139;45.626;6.850;2023-03-23T08:20:57;81813.91;;;8.07;47.67
64711;BME280;51139;45.626;6.850;2023-03-23T08:23:23;81812.91;;;8.02;47.32
64711;BME280;51139;45.626;6.850;2023-03-23T08:25:48;81819.78;;;7.98;51.72
64711;BME280;51139;45.626;6.850;2023-03-23T08:28:14;81826.28;;;7.79;51.13
64711;BME280;51139;45.626;6.850;2023-03-23T08:30:40;81824.88;;;7.27;51.70
64711;BME280;51139;45.626;6.850;2023-03-23T08:33:06;81831.88;;;7.58;51.38
64711;BME280;51139;45.626;6.850;2023-03-23T08:35:34;81829.88;;;7.41;52.41
64711;BME280;51139;45.626;6.850;2023-03-23T08:37:59;81823.31;;;7.75;51.89
64711;BME280;51139;45.626;6.850;2023-03-23T08:40:25;81821.00;;;7.79;49.95
64711;BME280;51139;45.626;6.850;2023-03-23T08:42:51;81825.50;;;7.86;52.26
64711;BME280;51139;45.626;6.850;2023-03-23T08:45:19;81834.41;;;7.73;49.25
64711;BME280;51139;45.626;6.850;2023-03-23T08:47:46;81831.91;;;7.76;52.01
64711;BME280;51139;45.626;6.850;2023-03-23T08:50:17;81829.47;;;7.52;50.24
64711;BME280;51139;45.626;6.850;2023-03-23T08:52:43;81841.06;;;7.74;53.94
64711;BME280;51139;45.626;6.850;2023-03-23T08:55:09;81832.28;;;7.97;53.42
64711;BME280;51139;45.626;6.850;2023-03-23T08:57:36;81845.31;;;7.95;52.93
64711;BME280;51139;45.626;6.850;2023-03-23T09:00:06;81840.47;;;7.84;49.01
64711;BME280;51139;45.626;6.850;2023-03-23T09:02:45;81843.50;;;7.80;50.58
64711;BME280;51139;45.626;6.850;2023-03-23T09:05:12;81830.59;;;8.10;51.65
64711;BME280;51139;45.626;6.850;2023-03-23T09:07:42;81827.19;;;8.35;50.08
64711;BME280;51139;45.626;6.850;2023-03-23T09:10:09;81824.56;;;8.35;50.64
64711;BME280;51139;45.626;6.850;2023-03-23T09:12:35;81826.56;;;8.26;50.14
64711;BME280;51139;45.626;6.850;2023-03-23T09:15:05;81833.78;;;8.26;53.33
64711;BME280;51139;45.626;6.850;2023-03-23T09:17:45;81838.25;;;8.58;52.72
64711;BME280;51139;45.626;6.850;2023-03-23T09:20:13;81841.31;;;8.47;49.21
64711;BME280;51139;45.626;6.850;2023-03-23T09:22:43;81847.25;;;8.55;49.10
64711;BME280;51139;45.626;6.850;2023-03-23T09:25:13;81841.56;;;8.41;52.16
64711;BME280;51139;45.626;6.850;2023-03-23T09:27:41;81840.84;;;8.23;53.24
64711;BME280;51139;45.626;6.850;2023-03-23T09:30:10;81842.63;;;8.38;52.91
64711;BME280;51139;45.626;6.850;2023-03-23T09:32:37;81848.72;;;8.49;55.09
64711;BME280;51139;45.626;6.850;2023-03-23T09:35:04;81854.72;;;8.24;51.98
64711;BME280;51139;45.626;6.850;2023-03-23T09:37:31;81854.84;;;7.65;55.03
64711;BME280;51139;45.626;6.850;2023-03-23T09:39:57;81853.59;;;7.92;55.02
64711;BME280;51139;45.626;6.850;2023-03-23T09:43:03;81841.97;;;7.95;53.41
64711;BME280;51139;45.626;6.850;2023-03-23T09:45:55;81841.38;;;8.39;55.12
64711;BME280;51139;45.626;6.850;2023-03-23T09:53:38;81851.44;;;8.58;54.90
64711;BME280;51139;45.626;6.850;2023-03-23T09:56:10;81860.47;;;7.87;57.10
64711;BME280;51139;45.626;6.850;2023-03-23T10:01:33;81865.38;;;7.91;54.94
64711;BME280;51139;45.626;6.850;2023-03-23T10:04:36;81861.09;;;8.21;57.41
64711;BME280;51139;45.626;6.850;2023-03-23T10:07:29;81864.25;;;8.62;48.83
64711;BME280;51139;45.626;6.850;2023-03-23T10:10:00;81872.47;;;9.01;50.08
64711;BME280;51139;45.626;6.850;2023-03-23T10:12:36;81872.88;;;8.98;50.06
64711;BME280;51139;45.626;6.850;2023-03-23T10:15:30;81875.81;;;9.02;52.29
64711;BME280;51139;45.626;6.850;2023-03-23T10:18:08;81880.84;;;9.08;52.95
64711;BME280;51139;45.626;6.850;2023-03-23T10:20:55;81878.78;;;8.88;54.76
64711;BME280;51139;45.626;6.850;2023-03-23T10:23:35;81879.50;;;8.54;51.38
64711;BME280;51139;45.626;6.850;2023-03-23T10:26:17;81876.84;;;8.54;49.99
64711;BME280;51139;45.626;6.850;2023-03-23T10:29:21;81881.50;;;8.63;51.75
64711;BME280;51139;45.626;6.850;2023-03-23T10:32:00;81882.66;;;8.09;52.81
64711;BME280;51139;45.626;6.850;2023-03-23T10:39:54;81885.00;;;8.23;52.48
64711;BME280;51139;45.626;6.850;2023-03-23T10:44:50;81880.69;;;9.05;51.01
64711;BME280;51139;45.626;6.850;2023-03-23T10:47:17;81880.34;;;8.31;48.15
64711;BME280;51139;45.626;6.850;2023-03-23T10:49:49;81876.22;;;8.63;49.67
64711;BME280;51139;45.626;6.850;2023-03-23T10:52:31;81887.00;;;8.75;51.77
64711;BME280;51139;45.626;6.850;2023-03-23T10:55:12;81882.41;;;9.28;50.26
64711;BME280;51139;45.626;6.850;2023-03-23T10:57:39;81873.09;;;8.92;48.04
64711;BME280;51139;45.626;6.850;2023-03-23T11:00:18;81872.44;;;9.19;49.41
64711;BME280;51139;45.626;6.850;2023-03-23T11:02:47;81874.56;;;9.48;51.30
64711;BME280;51139;45.626;6.850;2023-03-23T11:05:24;81877.16;;;9.66;50.70
64711;BME280;51139;45.626;6.850;2023-03-23T11:07:55;81875.25;;;9.76;51.47
64711;BME280;51139;45.626;6.850;2023-03-23T11:10:56;81870.84;;;9.78;47.27
64711;BME280;51139;45.626;6.850;2023-03-23T11:13:15;81865.56;;;9.88;47.72
64711;BME280;51139;45.626;6.850;2023-03-23T11:15:43;81865.47;;;10.06;46.54
64711;BME280;51139;45.626;6.850;2023-03-23T11:18:13;81866.53;;;9.56;50.44
64711;BME280;51139;45.626;6.850;2023-03-23T11:20:44;81863.22;;;9.92;50.61
64711;BME280;51139;45.626;6.850;2023-03-23T11:23:22;81860.94;;;10.16;50.01
64711;BME280;51139;45.626;6.850;2023-03-23T11:26:08;81860.19;;;10.53;48.21
64711;BME280;51139;45.626;6.850;2023-03-23T11:28:37;81851.81;;;10.47;49.47
64711;BME280;51139;45.626;6.850;2023-03-23T11:31:07;81851.97;;;10.49;48.97
64711;BME280;51139;45.626;6.850;2023-03-23T11:33:50;81858.31;;;10.83;52.41
64711;BME280;51139;45.626;6.850;2023-03-23T11:36:17;81853.88;;;10.39;51.21
64711;BME280;51139;45.626;6.850;2023-03-23T11:38:44;81851.72;;;10.74;51.77
64711;BME280;51139;45.626;6.850;2023-03-23T11:41:11;81852.28;;;10.83;48.72
64711;BME280;51139;45.626;6.850;2023-03-23T11:43:44;81853.25;;;10.58;47.61
64711;BME280;51139;45.626;6.850;2023-03-23T11:46:26;81857.69;;;10.08;47.21
64711;BME280;51139;45.626;6.850;2023-03-23T11:49:02;81853.31;;;10.30;50.15
64711;BME280;51139;45.626;6.850;2023-03-23T11:54:12;81863.78;;;10.38;46.75
64711;BME280;51139;45.626;6.850;2023-03-23T11:56:43;81863.59;;;10.26;49.98
64711;BME280;51139;45.626;6.850;2023-03-23T11:59:14;81863.94;;;10.40;47.67
64711;BME280;51139;45.626;6.850;2023-03-23T12:16:16;81856.81;;;10.33;48.32
64711;BME280;51139;45.626;6.850;2023-03-23T12:27:35;81844.25;;;9.86;48.20
64711;BME280;51139;45.626;6.850;2023-03-23T12:30:33;81843.56;;;10.33;46.98
64711;BME280;51139;45.626;6.850;2023-03-23T12:33:40;81839.44;;;10.49;46.41
64711;BME280;51139;45.626;6.850;2023-03-23T12:41:22;81843.97;;;10.19;46.82
64711;BME280;51139;45.626;6.850;2023-03-23T12:44:11;81846.16;;;10.13;47.49
64711;BME280;51139;45.626;6.850;2023-03-23T12:47:01;81831.25;;;9.71;48.12
64711;BME280;51139;45.626;6.850;2023-03-23T12:49:53;81834.81;;;9.56;46.38
64711;BME280;51139;45.626;6.850;2023-03-23T12:52:23;81829.63;;;9.75;50.75
64711;BME280;51139;45.626;6.850;2023-03-23T12:55:32;81835.63;;;9.86;50.75
64711;BME280;51139;45.626;6.850;2023-03-23T12:58:16;81833.50;;;10.21;47.14
64711;BME280;51139;45.626;6.850;2023-03-23T13:00:56;81825.34;;;9.90;49.09
64711;BME280;51139;45.626;6.850;2023-03-23T13:03:27;81830.34;;;9.96;49.08
64711;BME280;51139;45.626;6.850;2023-03-23T13:05:57;81831.66;;;10.04;49.27
64711;BME280;51139;45.626;6.850;2023-03-23T13:08:39;81824.69;;;10.09;48.77
64711;BME280;51139;45.626;6.850;2023-03-23T13:11:20;81825.44;;;9.72;48.81
64711;BME280;51139;45.626;6.850;2023-03-23T13:13:50;81827.09;;;10.25;47.59
64711;BME280;51139;45.626;6.850;2023-03-23T13:16:24;81832.19;;;10.03;49.70
64711;BME280;51139;45.626;6.850;2023-03-23T13:21:27;81830.25;;;10.13;48.28
64711;BME280;51139;45.626;6.850;2023-03-23T13:24:03;81827.25;;;10.36;47.36
64711;BME280;51139;45.626;6.850;2023-03-23T13:26:30;81830.88;;;10.21;47.95
64711;BME280;51139;45.626;6.850;2023-03-23T13:29:05;81823.44;;;10.00;48.93
64711;BME280;51139;45.626;6.850;2023-03-23T13:31:35;81826.59;;;10.46;47.39
64711;BME280;51139;45.626;6.850;2023-03-23T13:34:06;81825.38;;;10.57;46.83
64711;BME280;51139;45.626;6.850;2023-03-23T13:36:37;81819.63;;;10.41;46.66
64711;BME280;51139;45.626;6.850;2023-03-23T13:39:06;81819.59;;;10.31;46.07
64711;BME280;51139;45.626;6.850;2023-03-23T13:41:49;81822.72;;;10.00;48.55
64711;BME280;51139;45.626;6.850;2023-03-23T13:44:25;81822.44;;;9.96;48.92
64711;BME280;51139;45.626;6.850;2023-03-23T13:46:57;81823.06;;;10.24;48.51
64711;BME280;51139;45.626;6.850;2023-03-23T13:49:31;81823.34;;;10.28;46.82
64711;BME280;51139;45.626;6.850;2023-03-23T13:52:14;81820.13;;;10.29;46.57
64711;BME280;51139;45.626;6.850;2023-03-23T13:54:44;81822.66;;;10.27;47.30
64711;BME280;51139;45.626;6.850;2023-03-23T14:03:10;81809.78;;;10.04;49.34
64711;BME280;51139;45.626;6.850;2023-03-23T14:05:42;81805.66;;;10.20;47.36
64711;BME280;51139;45.626;6.850;2023-03-23T14:10:43;81806.38;;;10.31;49.66
64711;BME280;51139;45.626;6.850;2023-03-23T14:13:33;81802.28;;;10.20;51.04
64711;BME280;51139;45.626;6.850;2023-03-23T14:16:14;81807.69;;;10.02;49.88
64711;BME280;51139;45.626;6.850;2023-03-23T14:18:52;81807.69;;;10.12;49.91
64711;BME280;51139;45.626;6.850;2023-03-23T14:21:33;81804.31;;;9.92;51.10
64711;BME280;51139;45.626;6.850;2023-03-23T14:24:02;81809.47;;;10.00;50.04
64711;BME280;51139;45.626;6.850;2023-03-23T14:26:28;81805.59;;;10.01;49.52
64711;BME280;51139;45.626;6.850;2023-03-23T14:28:54;81819.69;;;10.13;49.31
64711;BME280;51139;45.626;6.850;2023-03-23T14:31:23;81807.34;;;10.26;49.54
64711;BME280;51139;45.626;6.850;2023-03-23T14:33:50;81811.16;;;9.95;48.63
64711;BME280;51139;45.626;6.850;2023-03-23T14:36:23;81806.28;;;9.54;49.71
64711;BME280;51139;45.626;6.850;2023-03-23T14:39:04;81813.91;;;9.50;50.98
64711;BME280;51139;45.626;6.850;2023-03-23T14:41:31;81813.50;;;9.54;51.16